createdAt,value
2023-05-10T00:00:48.850Z,10.50
2023-05-10T00:03:54.458Z,10.28
2023-05-10T00:07:01.142Z,10.78
2023-05-10T00:10:07.468Z,10.91
2023-05-10T00:13:13.955Z,10.99
2023-05-10T00:16:22.212Z,10.89
2023-05-10T00:19:28.692Z,11.36
2023-05-10T00:22:34.342Z,11.11
2023-05-10T00:25:40.749Z,10.93
2023-05-10T00:28:46.442Z,10.83
2023-05-10T00:31:55.530Z,11.16
2023-05-10T00:35:03.740Z,11.26
2023-05-10T00:38:10.466Z,11.39
2023-05-10T00:41:16.878Z,11.64
2023-05-10T00:44:25.052Z,11.93
2023-05-10T00:47:33.701Z,11.72
2023-05-10T00:50:41.305Z,11.95
2023-05-10T00:53:49.803Z,11.52
2023-05-10T00:56:58.136Z,11.73
2023-05-10T01:00:05.426Z,11.26
2023-05-10T01:03:15.639Z,11.87
2023-05-10T01:06:22.562Z,12.00
2023-05-10T01:09:30.219Z,11.90
2023-05-10T01:12:36.397Z,11.79
2023-05-10T01:15:44.916Z,11.76
2023-05-10T01:18:56.072Z,11.96
2023-05-10T01:22:24.951Z,11.91
2023-05-10T01:26:20.728Z,12.26
2023-05-10T01:30:14.900Z,12.77
2023-05-10T01:33:34.172Z,12.48
2023-05-10T01:36:52.452Z,12.63
2023-05-10T01:40:11.758Z,12.15
2023-05-10T01:43:28.714Z,12.19
2023-05-10T01:46:40.821Z,12.40
2023-05-10T01:49:57.327Z,12.45
2023-05-10T01:53:06.868Z,11.99
2023-05-10T01:56:16.676Z,12.24
2023-05-10T01:59:25.445Z,12.63
2023-05-10T02:02:40.725Z,12.56
2023-05-10T02:05:55.315Z,12.37
2023-05-10T02:09:02.112Z,11.89
2023-05-10T02:12:13.118Z,12.48
2023-05-10T02:15:26.330Z,12.34
2023-05-10T02:18:32.374Z,12.47
2023-05-10T02:21:45.657Z,13.01
2023-05-10T02:24:54.660Z,12.69
2023-05-10T02:28:08.169Z,12.81
2023-05-10T02:31:17.432Z,13.35
2023-05-10T02:34:27.252Z,13.27
2023-05-10T02:37:38.169Z,12.73
2023-05-10T02:40:50.059Z,13.60
2023-05-10T02:44:05.129Z,12.56
2023-05-10T02:47:11.820Z,12.99
2023-05-10T02:50:18.279Z,13.05
2023-05-10T02:53:38.444Z,13.36
2023-05-10T02:56:54.544Z,13.02
2023-05-10T03:00:01.490Z,12.95
2023-05-10T03:03:08.121Z,12.34
2023-05-10T03:06:14.993Z,12.00
2023-05-10T03:09:23.825Z,12.62
2023-05-10T03:12:54.177Z,12.30
2023-05-10T03:16:11.910Z,12.12
2023-05-10T03:19:30.354Z,12.42
2023-05-10T03:22:48.465Z,12.42
2023-05-10T03:26:00.176Z,12.01
2023-05-10T03:29:08.833Z,11.90
2023-05-10T03:32:15.719Z,12.03
2023-05-10T03:35:21.518Z,11.79
2023-05-10T03:38:30.264Z,11.43
2023-05-10T03:41:38.868Z,11.69
2023-05-10T03:44:45.509Z,12.29
2023-05-10T03:47:51.110Z,16.38
2023-05-10T03:50:57.758Z,18.79
2023-05-10T03:54:04.099Z,15.15
2023-05-10T03:57:13.626Z,12.38
2023-05-10T04:00:20.561Z,11.98
2023-05-10T04:03:31.599Z,12.46
2023-05-10T04:06:37.362Z,12.63
2023-05-10T04:09:44.826Z,11.82
2023-05-10T04:12:53.111Z,12.18
2023-05-10T04:15:59.500Z,14.83
2023-05-10T04:19:05.299Z,16.16
2023-05-10T04:22:12.815Z,15.69
2023-05-10T04:25:18.523Z,13.43
2023-05-10T04:28:27.488Z,14.31
2023-05-10T04:31:33.172Z,14.41
2023-05-10T04:34:39.980Z,14.09
2023-05-10T04:37:45.552Z,13.40
2023-05-10T04:40:51.986Z,12.58
2023-05-10T04:44:00.391Z,12.57
2023-05-10T04:47:07.291Z,12.52
2023-05-10T04:50:13.738Z,11.82
2023-05-10T04:53:20.063Z,12.00
2023-05-10T04:56:25.960Z,12.13
2023-05-10T04:59:35.200Z,12.23
2023-05-10T05:02:40.899Z,12.82
2023-05-10T05:05:48.121Z,12.56
2023-05-10T05:08:53.881Z,13.00
2023-05-10T05:12:00.649Z,12.32
2023-05-10T05:15:10.917Z,12.36
2023-05-10T05:18:17.397Z,12.42
2023-05-10T05:21:25.202Z,12.86
2023-05-10T05:24:31.595Z,12.79
2023-05-10T05:27:37.192Z,12.38
2023-05-10T05:30:46.688Z,12.52
2023-05-10T05:33:52.348Z,12.24
2023-05-10T05:36:58.845Z,12.06
2023-05-10T05:40:04.850Z,12.34
2023-05-10T05:43:11.297Z,12.35
2023-05-10T05:46:19.717Z,12.04
2023-05-10T05:49:26.165Z,11.35
2023-05-10T05:52:31.664Z,11.01
2023-05-10T05:55:38.156Z,10.96
2023-05-10T05:58:44.759Z,10.77
2023-05-10T06:01:54.597Z,9.74
2023-05-10T06:05:00.415Z,10.18
2023-05-10T06:08:07.199Z,9.79
2023-05-10T06:11:12.833Z,9.39
2023-05-10T06:14:22.354Z,9.78
2023-05-10T06:17:30.542Z,9.57
2023-05-10T06:20:37.119Z,9.39
2023-05-10T06:23:42.724Z,9.04
2023-05-10T06:26:51.214Z,9.42
2023-05-10T06:30:09.147Z,8.81
2023-05-10T06:33:21.681Z,8.79
2023-05-10T06:36:28.572Z,8.37
2023-05-10T06:39:34.941Z,8.00
2023-05-10T06:42:40.605Z,7.91
2023-05-10T06:45:47.450Z,7.62
2023-05-10T06:48:55.743Z,8.03
2023-05-10T06:52:02.212Z,7.84
2023-05-10T06:55:09.972Z,7.45
2023-05-10T06:58:16.543Z,7.55
2023-05-10T07:01:22.306Z,7.28
2023-05-10T07:04:31.370Z,6.37
2023-05-10T07:07:39.556Z,6.58
2023-05-10T07:10:46.572Z,5.86
2023-05-10T07:13:52.220Z,6.01
2023-05-10T07:16:58.704Z,6.08
2023-05-10T07:20:08.013Z,6.28
2023-05-10T07:23:19.028Z,5.74
2023-05-10T07:26:25.208Z,5.40
2023-05-10T07:29:32.083Z,5.64
2023-05-10T07:32:38.033Z,5.49
2023-05-10T07:35:47.436Z,5.27
2023-05-10T07:38:53.380Z,4.88
2023-05-10T07:42:00.250Z,5.19
2023-05-10T07:45:05.926Z,4.91
2023-05-10T07:48:12.502Z,4.48
2023-05-10T07:51:20.700Z,4.71
2023-05-10T07:54:27.266Z,4.77
2023-05-10T07:57:32.927Z,3.91
2023-05-10T08:00:40.699Z,3.70
2023-05-10T08:03:46.482Z,3.84
2023-05-10T08:06:55.596Z,3.70
2023-05-10T08:10:01.381Z,3.80
2023-05-10T08:13:08.214Z,3.83
2023-05-10T08:16:13.870Z,3.79
2023-05-10T08:19:22.636Z,4.00
2023-05-10T08:22:30.945Z,3.83
2023-05-10T08:25:37.531Z,3.13
2023-05-10T08:28:43.175Z,3.24
2023-05-10T08:31:49.779Z,3.28
2023-05-10T08:34:55.542Z,3.26
2023-05-10T08:38:05.017Z,2.81
2023-05-10T08:41:11.010Z,2.99
2023-05-10T08:44:19.677Z,3.00
2023-05-10T08:47:26.669Z,3.17
2023-05-10T08:50:35.382Z,3.34
2023-05-10T08:53:44.680Z,3.31
2023-05-10T08:56:51.326Z,3.47
2023-05-10T08:59:57.408Z,2.85
2023-05-10T09:03:05.522Z,2.95
2023-05-10T09:06:11.792Z,3.04
2023-05-10T09:09:21.954Z,2.95
2023-05-10T09:12:28.126Z,3.30
2023-05-10T09:15:35.117Z,2.96
2023-05-10T09:18:40.712Z,2.92
2023-05-10T09:21:47.899Z,2.87
2023-05-10T09:25:12.167Z,3.14
2023-05-10T09:28:18.679Z,2.91
2023-05-10T09:31:24.991Z,3.10
2023-05-10T09:34:41.105Z,2.98
2023-05-10T09:37:49.674Z,3.02
2023-05-10T09:40:59.028Z,2.95
2023-05-10T09:44:04.656Z,3.02
2023-05-10T09:47:11.146Z,2.91
2023-05-10T09:50:17.398Z,3.09
2023-05-10T09:53:26.615Z,3.34
2023-05-10T09:56:42.098Z,3.08
2023-05-10T09:59:48.783Z,2.96
2023-05-10T10:03:01.249Z,3.03
2023-05-10T10:06:26.382Z,3.16
2023-05-10T10:09:37.604Z,3.04
2023-05-10T10:12:48.301Z,3.10
2023-05-10T10:15:55.328Z,3.13
2023-05-10T10:19:02.842Z,3.36
2023-05-10T10:22:12.981Z,3.00
2023-05-10T10:25:23.107Z,3.28
2023-05-10T10:28:59.577Z,3.34
2023-05-10T10:32:25.919Z,3.52
2023-05-10T10:35:33.652Z,3.11
2023-05-10T10:39:05.394Z,3.55
2023-05-10T10:42:11.064Z,3.34
2023-05-10T10:45:20.010Z,3.31
2023-05-10T10:48:27.510Z,3.17
2023-05-10T10:51:36.512Z,3.22
2023-05-10T10:54:43.078Z,2.95
2023-05-10T10:57:53.454Z,3.09
2023-05-10T11:01:18.499Z,2.98
2023-05-10T11:04:24.999Z,3.43
2023-05-10T11:07:30.847Z,3.50
2023-05-10T11:10:37.750Z,2.75
2023-05-10T11:13:50.024Z,2.88
2023-05-10T11:17:02.493Z,3.09
2023-05-10T11:20:12.700Z,3.07
2023-05-10T11:23:19.398Z,3.28
2023-05-10T11:26:26.673Z,3.11
2023-05-10T11:29:33.206Z,3.20
2023-05-10T11:32:42.507Z,3.04
2023-05-10T11:35:49.631Z,2.94
2023-05-10T11:38:56.674Z,2.77
2023-05-10T11:42:03.878Z,3.23
2023-05-10T11:45:12.281Z,3.04
2023-05-10T11:48:25.082Z,3.43
2023-05-10T11:51:30.719Z,3.25
2023-05-10T11:54:38.222Z,3.41
2023-05-10T11:57:47.094Z,3.38
2023-05-10T12:00:54.696Z,3.47
2023-05-10T12:04:04.749Z,3.26
2023-05-10T12:07:11.505Z,3.43
2023-05-10T12:10:19.465Z,3.20
2023-05-10T12:13:26.316Z,3.23
2023-05-10T12:16:33.846Z,3.09
2023-05-10T12:19:49.009Z,3.01
2023-05-10T12:23:00.351Z,3.13
2023-05-10T12:26:08.227Z,3.12
2023-05-10T12:29:19.642Z,3.01
2023-05-10T12:32:41.988Z,3.11
2023-05-10T12:35:57.538Z,3.10
2023-05-10T12:39:07.635Z,2.94
2023-05-10T12:42:14.045Z,2.92
2023-05-10T12:45:23.285Z,2.76
2023-05-10T12:48:29.944Z,2.63
2023-05-10T12:51:39.009Z,2.99
2023-05-10T12:54:47.168Z,2.89
2023-05-10T12:57:53.567Z,2.82
2023-05-10T13:01:00.034Z,2.74
2023-05-10T13:04:06.659Z,2.63
2023-05-10T13:07:14.864Z,2.73
2023-05-10T13:10:21.528Z,3.13
2023-05-10T13:13:27.435Z,2.85
2023-05-10T13:16:33.979Z,2.68
2023-05-10T13:19:39.701Z,2.64
2023-05-10T13:22:50.513Z,2.91
2023-05-10T13:25:56.862Z,2.93
2023-05-10T13:29:03.295Z,2.90
2023-05-10T13:32:09.781Z,2.65
2023-05-10T13:35:16.776Z,3.16
2023-05-10T13:38:24.968Z,3.06
2023-05-10T13:41:31.292Z,3.20
2023-05-10T13:44:37.331Z,2.99
2023-05-10T13:47:43.783Z,3.28
2023-05-10T13:50:50.122Z,2.92
2023-05-10T13:53:59.287Z,2.97
2023-05-10T13:57:05.765Z,3.05
2023-05-10T14:00:14.021Z,2.92
2023-05-10T14:03:19.717Z,3.16
2023-05-10T14:06:26.316Z,2.94
2023-05-10T14:09:34.682Z,2.94
2023-05-10T14:12:41.266Z,2.83
2023-05-10T14:15:47.296Z,3.30
2023-05-10T14:18:53.886Z,3.42
2023-05-10T14:21:59.581Z,3.65
2023-05-10T14:25:09.623Z,3.86
2023-05-10T14:28:15.741Z,3.66
2023-05-10T14:31:22.564Z,4.58
2023-05-10T14:34:28.262Z,3.30
2023-05-10T14:37:34.692Z,3.30
2023-05-10T14:40:43.082Z,3.00
2023-05-10T14:43:52.548Z,3.13
2023-05-10T14:46:58.406Z,3.01
2023-05-10T14:50:05.099Z,3.27
2023-05-10T14:53:11.572Z,3.34
2023-05-10T14:56:21.862Z,3.27
2023-05-10T14:59:27.515Z,3.41
2023-05-10T15:02:35.396Z,3.32
2023-05-10T15:05:41.735Z,3.38
2023-05-10T15:08:48.170Z,3.51
2023-05-10T15:11:56.608Z,3.70
2023-05-10T15:15:08.822Z,3.89
2023-05-10T15:18:17.710Z,3.29
2023-05-10T15:21:24.286Z,3.29
2023-05-10T15:24:30.132Z,3.19
2023-05-10T15:27:39.484Z,3.21
2023-05-10T15:30:48.090Z,3.00
2023-05-10T15:33:54.700Z,3.12
2023-05-10T15:37:00.376Z,3.41
2023-05-10T15:40:10.869Z,3.29
2023-05-10T15:43:19.469Z,3.21
2023-05-10T15:46:25.882Z,3.36
2023-05-10T15:49:31.585Z,3.55
2023-05-10T15:52:38.354Z,3.39
2023-05-10T15:55:44.111Z,3.54
2023-05-10T15:58:53.256Z,3.20
2023-05-10T16:01:59.821Z,3.51
2023-05-10T16:05:07.487Z,3.61
2023-05-10T16:08:13.072Z,3.78
2023-05-10T16:11:19.909Z,3.57
2023-05-10T16:14:28.119Z,125.27
2023-05-10T16:17:34.617Z,243.62
2023-05-10T16:20:51.198Z,133.76
2023-05-10T16:23:58.098Z,4.10
2023-05-10T16:27:03.731Z,10.05
2023-05-10T16:30:14.535Z,5.52
2023-05-10T16:33:20.375Z,17.55
2023-05-10T16:36:26.869Z,20.83
2023-05-10T16:39:32.876Z,11.51
2023-05-10T16:42:39.264Z,52.53
2023-05-10T16:45:47.623Z,32.53
2023-05-10T16:48:54.224Z,6.51
2023-05-10T16:52:00.803Z,7.67
2023-05-10T16:55:08.320Z,4.12
2023-05-10T16:58:13.936Z,4.14
2023-05-10T17:01:24.379Z,4.50
2023-05-10T17:04:32.148Z,4.26
2023-05-10T17:07:38.607Z,4.20
2023-05-10T17:10:44.233Z,4.16
2023-05-10T17:13:52.647Z,4.11
2023-05-10T17:17:01.172Z,4.15
2023-05-10T17:20:09.636Z,4.07
2023-05-10T17:23:15.449Z,4.37
2023-05-10T17:26:22.569Z,4.71
2023-05-10T17:29:28.610Z,4.51
2023-05-10T17:32:38.022Z,4.58
2023-05-10T17:35:43.749Z,4.56
2023-05-10T17:38:50.766Z,4.84
2023-05-10T17:41:56.589Z,4.99
2023-05-10T17:45:04.049Z,4.94
2023-05-10T17:48:12.438Z,5.35
2023-05-10T17:51:18.888Z,5.77
2023-05-10T17:54:27.287Z,5.30
2023-05-10T17:57:33.732Z,4.80
2023-05-10T18:00:40.195Z,5.08
2023-05-10T18:03:49.572Z,4.98
2023-05-10T18:07:01.852Z,7.97
2023-05-10T18:10:09.992Z,8.36
2023-05-10T18:13:15.653Z,7.98
2023-05-10T18:16:22.178Z,7.15
2023-05-10T18:19:30.507Z,7.39
2023-05-10T18:22:37.145Z,8.73
2023-05-10T18:25:42.816Z,8.28
2023-05-10T18:28:49.203Z,7.08
2023-05-10T18:31:55.036Z,7.22
2023-05-10T18:35:04.746Z,8.02
2023-05-10T18:38:12.725Z,7.49
2023-05-10T18:41:19.283Z,6.93
2023-05-10T18:44:26.660Z,5.93
2023-05-10T18:47:33.166Z,5.88
2023-05-10T18:50:41.526Z,6.26
2023-05-10T18:53:47.966Z,6.44
2023-05-10T18:56:53.449Z,6.76
2023-05-10T18:59:59.829Z,7.07
2023-05-10T19:03:05.720Z,7.46
2023-05-10T19:06:17.588Z,8.16
2023-05-10T19:09:23.298Z,7.99
2023-05-10T19:12:29.866Z,7.57
2023-05-10T19:15:35.592Z,8.83
2023-05-10T19:18:44.942Z,8.71
2023-05-10T19:21:54.004Z,8.19
2023-05-10T19:25:00.859Z,7.20
2023-05-10T19:28:06.573Z,7.20
2023-05-10T19:31:13.092Z,7.00
2023-05-10T19:34:18.898Z,6.67
2023-05-10T19:37:28.149Z,7.01
2023-05-10T19:40:34.077Z,6.82
2023-05-10T19:43:42.093Z,6.68
2023-05-10T19:46:47.686Z,6.64
2023-05-10T19:49:54.203Z,7.11
2023-05-10T19:53:02.850Z,6.88
2023-05-10T19:56:10.649Z,7.00
2023-05-10T19:59:16.887Z,7.22
2023-05-10T20:02:23.430Z,7.62
2023-05-10T20:05:29.105Z,7.94
2023-05-10T20:08:38.002Z,7.70
2023-05-10T20:11:43.670Z,7.38
2023-05-10T20:14:50.233Z,7.43
2023-05-10T20:17:56.098Z,7.89
2023-05-10T20:21:05.024Z,7.68
2023-05-10T20:24:13.489Z,7.64
2023-05-10T20:27:21.313Z,8.35
2023-05-10T20:30:27.036Z,7.69
2023-05-10T20:33:33.583Z,7.67
2023-05-10T20:36:39.263Z,7.89
2023-05-10T20:39:50.395Z,7.31
2023-05-10T20:42:56.791Z,6.96
2023-05-10T20:46:05.736Z,6.62
2023-05-10T20:49:12.167Z,6.99
2023-05-10T20:52:19.961Z,6.91
2023-05-10T20:55:28.221Z,7.37
2023-05-10T20:58:35.085Z,7.12
2023-05-10T21:01:40.763Z,6.97
2023-05-10T21:04:47.345Z,7.25
2023-05-10T21:07:54.411Z,6.99
2023-05-10T21:11:07.368Z,7.56
2023-05-10T21:14:13.327Z,7.44
2023-05-10T21:17:20.307Z,7.20
2023-05-10T21:20:27.112Z,7.34
2023-05-10T21:23:34.681Z,7.68
2023-05-10T21:26:43.482Z,7.33
2023-05-10T21:29:50.118Z,7.64
2023-05-10T21:32:59.869Z,7.62
2023-05-10T21:36:07.620Z,7.71
2023-05-10T21:39:14.366Z,7.56
2023-05-10T21:42:23.390Z,7.72
2023-05-10T21:45:31.822Z,7.42
2023-05-10T21:48:38.786Z,7.67
2023-05-10T21:51:44.558Z,7.37
2023-05-10T21:54:52.097Z,7.24
2023-05-10T21:58:01.223Z,7.68
2023-05-10T22:01:08.007Z,7.76
2023-05-10T22:04:13.822Z,7.63
2023-05-10T22:07:20.355Z,7.26
2023-05-10T22:10:25.975Z,7.01
2023-05-10T22:13:35.061Z,7.09
2023-05-10T22:16:40.751Z,7.20
2023-05-10T22:19:47.470Z,7.12
2023-05-10T22:22:53.123Z,7.56
2023-05-10T22:26:04.352Z,7.16
2023-05-10T22:29:12.808Z,7.14
2023-05-10T22:32:19.640Z,7.48
2023-05-10T22:35:25.575Z,7.41
2023-05-10T22:38:31.978Z,7.26
2023-05-10T22:41:37.788Z,7.34
2023-05-10T22:44:47.198Z,7.68
2023-05-10T22:47:53.026Z,7.86
2023-05-10T22:50:59.551Z,7.50
2023-05-10T22:54:05.050Z,7.45
2023-05-10T22:57:11.800Z,7.78
2023-05-10T23:00:20.978Z,7.93
2023-05-10T23:03:28.747Z,7.96
2023-05-10T23:06:34.391Z,8.01
2023-05-10T23:09:40.781Z,8.50
2023-05-10T23:12:46.646Z,8.84
2023-05-10T23:15:55.639Z,8.40
2023-05-10T23:19:01.366Z,8.46
2023-05-10T23:22:07.945Z,8.80
2023-05-10T23:25:14.057Z,8.60
2023-05-10T23:28:20.527Z,9.06
2023-05-10T23:31:28.857Z,9.25
2023-05-10T23:34:35.321Z,8.74
2023-05-10T23:37:42.272Z,9.05
2023-05-10T23:40:52.559Z,9.18
2023-05-10T23:43:58.023Z,9.41
2023-05-10T23:47:07.424Z,9.04
2023-05-10T23:50:14.238Z,9.74
2023-05-10T23:53:20.740Z,9.67
2023-05-10T23:56:26.977Z,8.79
2023-05-10T23:59:33.347Z,8.41
